Time;durP1;ratioP1;P1;durP2;ratioP2;P2;SDS_P1;SDS_P2;PMS_P1;PMS_P2;Temp;Humidity;BMP_temperature;BMP_pressure;BME280_temperature;BME280_humidity;BME280_pressure;Samples;Min_cycle;Max_cycle;Signal;HPM_P1;HPM_P2
2021/05/26 00:01:10;;;;;;;15.50;13.05;;;11.00;99.90;;;;;;1835383;77;21219;-78
2021/05/26 00:03:38;;;;;;;19.42;13.68;;;11.00;99.90;;;;;;1836743;77;21250;-78
2021/05/26 00:06:06;;;;;;;17.57;13.58;;;11.10;99.90;;;;;;1835680;76;21087;-79
2021/05/26 00:08:35;;;;;;;15.48;13.65;;;11.00;99.90;;;;;;1834035;77;21054;-79
2021/05/26 00:11:06;;;;;;;15.00;13.32;;;10.90;99.90;;;;;;1834625;77;21140;-78
2021/05/26 00:13:34;;;;;;;18.23;13.45;;;11.00;99.90;;;;;;1831284;77;21147;-78
2021/05/26 00:16:03;;;;;;;16.52;12.90;;;11.00;99.90;;;;;;1839489;76;22123;-79
2021/05/26 00:18:32;;;;;;;17.12;13.03;;;11.10;99.90;;;;;;1834173;77;21176;-81
2021/05/26 00:21:00;;;;;;;17.00;13.98;;;11.00;99.90;;;;;;1838499;77;21052;-79
2021/05/26 00:23:28;;;;;;;16.35;14.05;;;11.10;99.90;;;;;;1833768;77;21156;-81
2021/05/26 00:25:56;;;;;;;16.75;14.93;;;10.90;99.90;;;;;;1837184;76;21101;-80
2021/05/26 00:28:23;;;;;;;16.32;14.47;;;10.90;99.90;;;;;;1829545;77;21179;-78
2021/05/26 00:30:52;;;;;;;15.65;14.05;;;10.90;99.90;;;;;;1832065;77;21094;-78
2021/05/26 00:33:22;;;;;;;18.92;14.25;;;11.00;99.90;;;;;;1835393;77;22294;-77
2021/05/26 00:35:50;;;;;;;17.75;14.15;;;11.00;99.90;;;;;;1832180;76;21235;-78
2021/05/26 00:38:19;;;;;;;18.67;14.65;;;11.00;99.90;;;;;;1835348;77;21199;-77
2021/05/26 00:40:48;;;;;;;15.35;13.85;;;11.10;99.90;;;;;;1838245;77;21219;-77
2021/05/26 00:43:17;;;;;;;15.75;13.48;;;11.20;99.90;;;;;;1836946;76;21698;-77
2021/05/26 00:45:46;;;;;;;15.38;13.22;;;11.30;99.90;;;;;;1834643;77;21145;-78
2021/05/26 00:48:14;;;;;;;14.53;12.73;;;11.40;99.90;;;;;;1837629;77;21210;-78
2021/05/26 00:50:42;;;;;;;14.58;12.68;;;11.30;99.90;;;;;;1835434;77;21109;-78
2021/05/26 00:53:12;;;;;;;15.40;12.82;;;11.20;99.90;;;;;;1836462;77;21137;-78
2021/05/26 00:55:41;;;;;;;15.80;13.32;;;11.30;99.90;;;;;;1830751;76;21510;-78
2021/05/26 00:58:19;;;;;;;14.00;12.00;;;11.40;99.90;;;;;;1834648;77;21155;-78
2021/05/26 01:00:47;;;;;;;13.48;12.18;;;11.40;99.90;;;;;;1833032;77;21517;-78
2021/05/26 01:03:14;;;;;;;14.85;12.82;;;11.30;99.90;;;;;;1834170;77;21070;-78
2021/05/26 01:05:43;;;;;;;14.90;12.20;;;11.30;99.90;;;;;;1834821;76;21067;-78
2021/05/26 01:08:11;;;;;;;21.07;13.55;;;11.30;99.90;;;;;;1836703;77;21058;-78
2021/05/26 01:10:39;;;;;;;19.90;13.40;;;11.30;99.90;;;;;;1836854;77;21011;-78
2021/05/26 01:13:07;;;;;;;14.85;12.53;;;11.20;99.90;;;;;;1832485;77;21536;-79
2021/05/26 01:15:34;;;;;;;17.62;12.25;;;11.20;99.90;;;;;;1833152;76;21082;-78
2021/05/26 01:18:22;;;;;;;16.87;12.80;;;11.20;99.90;;;;;;1834937;77;21643;-78
2021/05/26 01:20:51;;;;;;;21.97;13.68;;;11.20;99.90;;;;;;1834795;77;21046;-78
2021/05/26 01:23:19;;;;;;;16.77;12.82;;;11.20;99.90;;;;;;1833076;77;21038;-77
2021/05/26 01:25:49;;;;;;;18.25;12.37;;;11.20;99.90;;;;;;1832477;77;21164;-78
2021/05/26 01:28:17;;;;;;;15.43;12.28;;;11.20;99.90;;;;;;1835582;77;21042;-78
2021/05/26 01:30:45;;;;;;;14.10;11.95;;;11.10;99.90;;;;;;1830643;77;21083;-78
2021/05/26 01:33:13;;;;;;;14.03;12.47;;;11.30;99.90;;;;;;1834792;77;21121;-78
2021/05/26 01:35:44;;;;;;;20.68;13.25;;;11.40;99.90;;;;;;1835730;76;21117;-78
2021/05/26 01:38:16;;;;;;;16.27;13.20;;;11.30;99.90;;;;;;1833432;77;21571;-78
2021/05/26 01:40:43;;;;;;;17.70;14.38;;;11.10;99.90;;;;;;1834030;77;21575;-79
2021/05/26 01:43:11;;;;;;;19.25;13.98;;;11.00;99.90;;;;;;1830852;77;22226;-78
2021/05/26 01:45:39;;;;;;;20.88;14.55;;;11.10;99.90;;;;;;1835664;76;21149;-78
2021/05/26 01:48:08;;;;;;;17.07;14.83;;;11.00;99.90;;;;;;1833047;77;21079;-78
2021/05/26 01:50:36;;;;;;;17.37;14.45;;;11.00;99.90;;;;;;1832548;77;21183;-78
2021/05/26 01:53:05;;;;;;;20.08;15.50;;;11.10;99.90;;;;;;1832140;77;21163;-79
2021/05/26 01:55:34;;;;;;;18.52;15.20;;;11.10;99.90;;;;;;1834577;77;21115;-79
2021/05/26 01:58:04;;;;;;;16.80;14.10;;;11.10;99.90;;;;;;1836094;77;21543;-78
2021/05/26 02:00:32;;;;;;;17.30;14.20;;;11.00;99.90;;;;;;1834058;77;21678;-78
2021/05/26 02:03:00;;;;;;;19.17;16.55;;;10.90;99.90;;;;;;1834244;77;21192;-78
2021/05/26 02:05:27;;;;;;;26.20;17.07;;;10.80;99.90;;;;;;1833327;76;21129;-78
2021/05/26 02:07:55;;;;;;;23.62;16.73;;;10.70;99.90;;;;;;1831800;77;21061;-78
2021/05/26 02:12:51;;;;;;;19.90;15.13;;;10.60;99.90;;;;;;1766020;77;21117;-79
2021/05/26 02:15:19;;;;;;;19.52;14.90;;;10.70;99.90;;;;;;1836818;76;21163;-78
2021/05/26 02:17:46;;;;;;;21.68;14.40;;;10.60;99.90;;;;;;1831348;76;21607;-78
2021/05/26 02:20:14;;;;;;;21.75;14.75;;;10.70;99.90;;;;;;1831400;77;21094;-77
2021/05/26 02:22:42;;;;;;;17.32;14.07;;;10.80;99.90;;;;;;1837275;77;21164;-78
2021/05/26 02:25:10;;;;;;;16.57;13.85;;;10.70;99.90;;;;;;1835491;76;21187;-78
2021/05/26 02:27:37;;;;;;;16.93;12.55;;;10.90;99.90;;;;;;1835631;77;21169;-78
2021/05/26 02:30:06;;;;;;;19.20;13.83;;;10.80;99.90;;;;;;1838030;77;21223;-78
2021/05/26 02:32:34;;;;;;;20.30;13.70;;;10.90;99.90;;;;;;1834187;77;21176;-78
2021/05/26 02:35:01;;;;;;;20.25;13.95;;;10.90;99.90;;;;;;1834573;76;21098;-78
2021/05/26 02:37:29;;;;;;;17.32;13.30;;;10.80;99.90;;;;;;1835041;77;21101;-78
2021/05/26 02:39:56;;;;;;;17.85;14.55;;;10.90;99.90;;;;;;1832873;77;21113;-77
2021/05/26 02:42:24;;;;;;;18.87;14.50;;;10.80;99.90;;;;;;1834629;77;21412;-78
2021/05/26 02:44:52;;;;;;;17.23;13.03;;;10.80;99.90;;;;;;1832535;77;21199;-78
2021/05/26 02:47:19;;;;;;;18.45;14.43;;;10.80;99.90;;;;;;1830649;76;21149;-78
2021/05/26 02:49:47;;;;;;;18.52;13.88;;;10.80;99.90;;;;;;1832430;77;21102;-78
2021/05/26 02:52:14;;;;;;;18.55;14.28;;;10.80;99.90;;;;;;1832286;77;21122;-78
2021/05/26 02:54:42;;;;;;;18.23;14.35;;;10.90;99.90;;;;;;1834778;77;21215;-78
2021/05/26 02:57:09;;;;;;;20.57;15.53;;;10.90;99.90;;;;;;1833258;76;21145;-78
2021/05/26 02:59:37;;;;;;;24.72;15.25;;;11.00;99.90;;;;;;1834110;77;21106;-78
2021/05/26 03:02:04;;;;;;;18.05;14.50;;;11.00;99.90;;;;;;1834286;77;21113;-78
2021/05/26 03:04:32;;;;;;;17.87;14.78;;;11.00;99.90;;;;;;1836550;77;21086;-78
2021/05/26 03:06:59;;;;;;;22.82;15.32;;;10.90;99.90;;;;;;1836898;77;21110;-78
2021/05/26 03:09:27;;;;;;;20.08;17.20;;;10.80;99.90;;;;;;1833945;77;21140;-78
2021/05/26 03:11:54;;;;;;;19.92;14.80;;;10.80;99.90;;;;;;1831868;77;21219;-78
2021/05/26 03:14:22;;;;;;;22.98;15.80;;;10.90;99.90;;;;;;1832507;77;21184;-78
2021/05/26 03:16:50;;;;;;;19.27;15.38;;;11.00;99.90;;;;;;1837685;76;21103;-78
2021/05/26 03:19:17;;;;;;;23.57;16.40;;;11.00;99.90;;;;;;1837420;76;21145;-77
2021/05/26 03:21:45;;;;;;;23.52;16.10;;;11.00;99.90;;;;;;1832445;77;21183;-78
2021/05/26 03:24:14;;;;;;;28.80;18.52;;;10.80;99.90;;;;;;1838813;77;21137;-78
2021/05/26 03:26:41;;;;;;;22.17;18.27;;;10.60;99.90;;;;;;1834176;76;21079;-78
2021/05/26 03:29:09;;;;;;;29.05;19.77;;;10.70;99.90;;;;;;1833309;77;21527;-78
2021/05/26 03:31:36;;;;;;;28.10;20.00;;;10.80;99.90;;;;;;1830210;77;21087;-78
2021/05/26 03:34:05;;;;;;;24.47;18.95;;;10.80;99.90;;;;;;1833225;77;21697;-78
2021/05/26 03:36:33;;;;;;;27.35;20.08;;;10.80;99.90;;;;;;1835593;76;21137;-78
2021/05/26 03:39:30;;;;;;;23.12;19.67;;;10.80;99.90;;;;;;1834901;77;21172;-78
2021/05/26 03:41:58;;;;;;;23.40;18.82;;;10.80;99.90;;;;;;1833849;77;21124;-77
2021/05/26 03:44:25;;;;;;;24.72;19.62;;;10.70;99.90;;;;;;1834227;77;21117;-78
2021/05/26 03:46:53;;;;;;;25.17;20.23;;;10.70;99.90;;;;;;1834677;77;21634;-77
2021/05/26 03:49:20;;;;;;;25.23;18.73;;;10.80;99.90;;;;;;1835730;77;21124;-78
2021/05/26 03:51:48;;;;;;;24.05;18.92;;;10.90;99.90;;;;;;1833041;77;21039;-77
2021/05/26 03:54:15;;;;;;;24.32;20.25;;;10.90;99.90;;;;;;1832417;77;21584;-78
2021/05/26 03:56:43;;;;;;;24.35;19.55;;;10.70;99.90;;;;;;1832081;76;21211;-77
2021/05/26 03:59:10;;;;;;;25.15;19.55;;;10.70;99.90;;;;;;1832632;77;21086;-78
2021/05/26 04:01:38;;;;;;;22.87;18.48;;;10.70;99.90;;;;;;1836761;77;21080;-78
2021/05/26 04:04:06;;;;;;;26.90;21.15;;;10.70;99.90;;;;;;1835065;77;21183;-77
2021/05/26 04:06:36;;;;;;;25.40;20.40;;;10.60;99.90;;;;;;1832478;77;21215;-79
2021/05/26 04:09:05;;;;;;;23.40;20.02;;;10.60;99.90;;;;;;1835290;77;21101;-78
2021/05/26 04:11:32;;;;;;;27.25;20.35;;;10.70;99.90;;;;;;1833311;77;21049;-78
2021/05/26 04:14:00;;;;;;;24.07;21.62;;;10.80;99.90;;;;;;1834231;77;21089;-77
2021/05/26 04:16:27;;;;;;;28.25;20.70;;;10.70;99.90;;;;;;1835502;76;21736;-78
2021/05/26 04:18:55;;;;;;;28.02;20.92;;;10.80;99.90;;;;;;1835104;77;21180;-77
2021/05/26 04:21:22;;;;;;;29.57;22.02;;;10.90;99.90;;;;;;1833454;77;21109;-77
2021/05/26 04:23:50;;;;;;;29.55;22.22;;;10.80;99.90;;;;;;1836377;77;21657;-76
2021/05/26 04:26:17;;;;;;;24.95;21.80;;;10.70;99.90;;;;;;1836278;76;21594;-76
2021/05/26 04:28:45;;;;;;;28.02;20.90;;;10.70;99.90;;;;;;1834312;77;21104;-76
2021/05/26 04:31:14;;;;;;;27.40;21.20;;;10.70;99.90;;;;;;1840322;77;21427;-77
2021/05/26 04:33:42;;;;;;;23.85;20.25;;;10.80;99.90;;;;;;1835211;77;21234;-76
2021/05/26 04:36:10;;;;;;;26.20;20.80;;;10.90;99.90;;;;;;1832582;76;21149;-77
2021/05/26 04:38:37;;;;;;;26.07;20.17;;;10.90;99.90;;;;;;1834818;77;21109;-77
2021/05/26 04:41:09;;;;;;;29.75;20.25;;;10.90;99.90;;;;;;1833259;77;21219;-78
2021/05/26 04:43:34;;;;;;;25.45;21.07;;;11.00;99.90;;;;;;1834099;77;21452;-77
2021/05/26 04:46:02;;;;;;;23.83;21.05;;;11.00;99.90;;;;;;1834642;76;21094;-77
2021/05/26 04:48:30;;;;;;;27.22;21.60;;;10.80;99.90;;;;;;1831772;77;21101;-76
2021/05/26 04:50:58;;;;;;;23.00;20.48;;;10.80;99.90;;;;;;1833209;77;21572;-78
2021/05/26 04:53:25;;;;;;;36.33;20.52;;;10.80;99.90;;;;;;1836724;77;21611;-77
2021/05/26 04:55:53;;;;;;;25.27;19.77;;;10.90;99.90;;;;;;1839463;76;21145;-78
2021/05/26 04:58:20;;;;;;;25.88;20.60;;;11.10;99.90;;;;;;1836433;77;21097;-77
2021/05/26 05:00:48;;;;;;;25.23;19.62;;;11.20;99.90;;;;;;1837105;77;21093;-78
2021/05/26 05:03:15;;;;;;;27.62;20.08;;;11.10;99.90;;;;;;1839296;77;21569;-76
2021/05/26 05:05:43;;;;;;;24.82;20.25;;;11.00;99.90;;;;;;1835563;76;21150;-76
2021/05/26 05:08:10;;;;;;;24.23;19.62;;;11.00;99.90;;;;;;1832891;77;21109;-76
2021/05/26 05:10:38;;;;;;;23.60;19.27;;;11.00;99.90;;;;;;1834088;77;21117;-78
2021/05/26 05:13:05;;;;;;;28.52;21.30;;;11.00;99.90;;;;;;1832662;77;21105;-77
2021/05/26 05:18:02;;;;;;;25.82;20.27;;;11.00;99.90;;;;;;1844404;76;21154;-78
2021/05/26 05:20:29;;;;;;;31.73;21.12;;;11.10;99.90;;;;;;1822659;77;21257;-79
2021/05/26 05:22:57;;;;;;;27.98;20.77;;;11.00;99.90;;;;;;1847983;76;21062;-77
2021/05/26 05:25:25;;;;;;;28.42;20.60;;;10.90;99.90;;;;;;1841741;77;21173;-78
2021/05/26 05:27:53;;;;;;;27.75;21.33;;;11.00;99.90;;;;;;1844587;77;21132;-80
2021/05/26 05:30:21;;;;;;;26.90;20.90;;;11.00;99.90;;;;;;1846753;77;21602;-79
2021/05/26 05:32:48;;;;;;;27.25;20.88;;;11.20;99.90;;;;;;1846786;76;21113;-78
2021/05/26 05:35:16;;;;;;;26.93;21.50;;;11.20;99.90;;;;;;1844417;77;21105;-78
2021/05/26 05:37:44;;;;;;;25.23;22.15;;;11.20;99.90;;;;;;1846333;76;21156;-78
2021/05/26 05:40:12;;;;;;;29.90;22.15;;;11.20;99.90;;;;;;1846632;77;21117;-79
2021/05/26 05:42:40;;;;;;;31.27;23.60;;;11.10;99.90;;;;;;1845727;76;21089;-79
2021/05/26 05:45:08;;;;;;;31.12;22.73;;;10.90;99.90;;;;;;1843294;77;21117;-77
2021/05/26 05:47:35;;;;;;;31.40;22.42;;;11.00;99.90;;;;;;1848325;76;21158;-79
2021/05/26 05:50:04;;;;;;;28.47;23.12;;;11.10;99.90;;;;;;1844978;76;21105;-79
2021/05/26 05:52:32;;;;;;;33.85;21.85;;;11.20;99.90;;;;;;1846073;76;21113;-79
2021/05/26 05:54:59;;;;;;;29.30;21.77;;;11.30;99.90;;;;;;1848512;77;21136;-78
2021/05/26 05:57:27;;;;;;;32.17;21.27;;;11.40;99.90;;;;;;1847478;77;21137;-78
2021/05/26 05:59:54;;;;;;;33.38;22.15;;;11.30;99.90;;;;;;1846932;76;21101;-81
2021/05/26 06:02:22;;;;;;;28.05;22.37;;;11.20;99.90;;;;;;1845291;77;21109;-81
2021/05/26 06:04:49;;;;;;;27.95;21.75;;;11.40;99.90;;;;;;1846050;76;21159;-80
2021/05/26 06:07:17;;;;;;;37.30;22.98;;;11.40;99.90;;;;;;1848745;76;21141;-78
2021/05/26 06:09:44;;;;;;;33.88;23.75;;;11.30;99.90;;;;;;1847719;76;21137;-78
2021/05/26 06:12:12;;;;;;;36.00;22.82;;;11.30;99.90;;;;;;1844730;77;21097;-76
2021/05/26 06:14:39;;;;;;;38.92;23.05;;;11.30;99.90;;;;;;1846967;76;21097;-76
2021/05/26 06:17:07;;;;;;;30.23;23.00;;;11.30;99.90;;;;;;1845906;76;21148;-78
2021/05/26 06:19:34;;;;;;;37.28;22.60;;;11.30;99.90;;;;;;1845713;77;21105;-79
2021/05/26 06:22:02;;;;;;;34.27;21.90;;;11.40;99.90;;;;;;1845163;77;21179;-79
2021/05/26 06:24:29;;;;;;;37.80;23.25;;;11.60;99.90;;;;;;1840722;77;21268;-79
2021/05/26 06:26:57;;;;;;;30.45;21.87;;;11.60;99.90;;;;;;1847178;77;21258;-77
2021/05/26 06:29:25;;;;;;;30.85;21.57;;;11.60;99.90;;;;;;1846154;76;21237;-80
2021/05/26 06:31:53;;;;;;;31.77;23.07;;;11.50;99.90;;;;;;1853524;76;21828;-78
2021/05/26 06:34:20;;;;;;;36.42;23.25;;;11.50;99.90;;;;;;1848599;76;21098;-78
2021/05/26 06:36:47;;;;;;;34.30;23.15;;;11.50;99.90;;;;;;1847474;76;22313;-78
2021/05/26 06:39:15;;;;;;;37.00;22.15;;;11.50;99.90;;;;;;1847514;76;21179;-78
2021/05/26 06:41:42;;;;;;;34.35;22.50;;;11.30;99.90;;;;;;1848044;75;21114;-77
2021/05/26 06:44:10;;;;;;;26.75;20.43;;;11.20;99.90;;;;;;1846222;76;21595;-77
2021/05/26 06:46:39;;;;;;;33.15;21.33;;;11.20;99.90;;;;;;1844080;76;21145;-77
2021/05/26 06:49:08;;;;;;;29.20;19.77;;;11.20;99.90;;;;;;1846437;76;21109;-77
2021/05/26 06:51:35;;;;;;;29.15;19.02;;;11.30;99.90;;;;;;1850719;76;21646;-77
2021/05/26 06:54:03;;;;;;;30.90;18.73;;;11.40;99.90;;;;;;1847632;76;21121;-78
2021/05/26 06:56:31;;;;;;;29.27;18.20;;;11.50;99.90;;;;;;1844492;76;21140;-79
2021/05/26 06:58:59;;;;;;;29.45;16.50;;;11.60;99.90;;;;;;1848193;76;21160;-81
2021/05/26 07:01:26;;;;;;;24.47;15.15;;;11.60;99.90;;;;;;1849836;76;21151;-78
2021/05/26 07:03:54;;;;;;;20.60;14.33;;;11.40;99.90;;;;;;1852580;76;21113;-77
2021/05/26 07:06:21;;;;;;;25.48;14.85;;;11.40;99.90;;;;;;1854092;76;21184;-80
2021/05/26 07:08:49;;;;;;;20.65;13.62;;;11.40;99.90;;;;;;1847458;76;21160;-78
2021/05/26 07:11:16;;;;;;;23.47;14.43;;;11.40;99.90;;;;;;1842045;76;21057;-78
2021/05/26 07:13:44;;;;;;;21.65;14.15;;;11.40;99.90;;;;;;1842907;76;21113;-77
2021/05/26 07:16:11;;;;;;;21.73;12.07;;;11.40;99.90;;;;;;1843613;76;21223;-79
2021/05/26 07:18:42;;;;;;;22.73;12.33;;;11.30;99.90;;;;;;1846841;76;21206;-78
2021/05/26 07:21:08;;;;;;;21.62;11.33;;;11.40;99.90;;;;;;1841480;76;21207;-78
2021/05/26 07:23:35;;;;;;;21.17;11.53;;;11.40;99.90;;;;;;1840062;76;21105;-79
2021/05/26 07:26:03;;;;;;;24.20;11.08;;;11.50;99.90;;;;;;1847739;76;21508;-78
2021/05/26 07:28:30;;;;;;;20.97;10.72;;;11.50;99.90;;;;;;1843915;76;21113;-78
2021/05/26 07:30:58;;;;;;;21.50;10.82;;;11.70;99.90;;;;;;1845148;76;21117;-79
2021/05/26 07:33:25;;;;;;;19.95;10.13;;;11.70;99.90;;;;;;1843068;77;21611;-79
2021/05/26 07:35:53;;;;;;;17.32;9.53;;;11.80;99.90;;;;;;1846719;76;21270;-79
2021/05/26 07:38:20;;;;;;;22.70;10.20;;;11.80;99.90;;;;;;1848729;76;21121;-79
2021/05/26 07:40:48;;;;;;;14.75;9.23;;;11.80;99.90;;;;;;1847480;75;21114;-80
2021/05/26 07:43:15;;;;;;;23.65;9.65;;;11.80;99.90;;;;;;1841632;77;21238;-79
2021/05/26 07:45:43;;;;;;;21.25;9.83;;;11.90;99.90;;;;;;1848705;76;21022;-79
2021/05/26 07:48:10;;;;;;;17.57;9.75;;;12.20;99.90;;;;;;1851323;76;21514;-80
2021/05/26 07:50:38;;;;;;;17.35;9.35;;;12.20;99.90;;;;;;1846921;76;21129;-79
2021/05/26 07:53:05;;;;;;;18.30;9.48;;;12.20;99.90;;;;;;1848110;76;21081;-79
2021/05/26 07:55:33;;;;;;;15.98;8.78;;;12.20;99.90;;;;;;1849968;76;21045;-77
2021/05/26 07:58:01;;;;;;;16.48;8.60;;;12.10;99.90;;;;;;1850464;76;21571;-79
2021/05/26 08:00:29;;;;;;;15.90;8.03;;;12.20;99.90;;;;;;1852682;76;21120;-79
2021/05/26 08:02:56;;;;;;;15.05;8.05;;;12.00;99.90;;;;;;1846063;77;21194;-79
2021/05/26 08:05:24;;;;;;;15.38;6.85;;;11.90;99.90;;;;;;1846244;76;21178;-78
2021/05/26 08:07:52;;;;;;;16.42;7.50;;;11.90;99.90;;;;;;1846501;76;21161;-78
2021/05/26 08:10:20;;;;;;;11.15;5.90;;;12.00;99.90;;;;;;1845813;76;21084;-80
2021/05/26 08:12:47;;;;;;;13.65;6.60;;;12.10;99.90;;;;;;1841369;77;21121;-79
2021/05/26 08:15:15;;;;;;;11.15;6.53;;;12.00;99.90;;;;;;1848120;76;21570;-79
2021/05/26 08:17:43;;;;;;;16.02;6.60;;;12.10;99.90;;;;;;1845843;77;21199;-79
2021/05/26 08:20:11;;;;;;;13.22;5.78;;;12.30;99.90;;;;;;1845216;77;21235;-77
2021/05/26 08:22:39;;;;;;;10.95;4.60;;;12.30;99.90;;;;;;1844410;77;21136;-80
2021/05/26 08:25:07;;;;;;;11.25;4.53;;;12.30;99.90;;;;;;1845938;76;21151;-78
2021/05/26 08:27:35;;;;;;;8.63;4.12;;;12.40;99.90;;;;;;1848071;76;21144;-77
2021/05/26 08:30:03;;;;;;;8.53;4.30;;;12.40;99.90;;;;;;1847300;76;21394;-76
2021/05/26 08:32:31;;;;;;;8.60;4.03;;;12.40;99.90;;;;;;1844992;77;21133;-76
2021/05/26 08:34:58;;;;;;;8.00;4.60;;;12.60;99.90;;;;;;1844292;77;21405;-78
2021/05/26 08:37:26;;;;;;;12.75;4.50;;;12.60;99.90;;;;;;1846662;76;21156;-81
2021/05/26 08:39:53;;;;;;;8.45;4.12;;;12.60;99.90;;;;;;1844109;76;21183;-81
2021/05/26 08:42:21;;;;;;;9.13;4.35;;;12.60;99.90;;;;;;1849828;76;21623;-79
2021/05/26 08:44:48;;;;;;;6.70;3.72;;;12.60;99.90;;;;;;1849041;76;21113;-81
2021/05/26 08:47:18;;;;;;;9.40;3.75;;;12.70;99.90;;;;;;1856063;74;21089;-80
2021/05/26 08:49:48;;;;;;;9.58;4.33;;;12.80;99.90;;;;;;1853629;74;21104;-83
2021/05/26 08:52:17;;;;;;;9.15;3.98;;;12.60;99.90;;;;;;1851827;76;21124;-82
2021/05/26 08:54:47;;;;;;;10.95;3.92;;;12.40;99.90;;;;;;1851033;76;21105;-81
2021/05/26 08:57:15;;;;;;;8.65;3.67;;;12.40;99.90;;;;;;1840623;76;21153;-81
2021/05/26 08:59:43;;;;;;;9.78;4.12;;;12.50;99.90;;;;;;1853128;76;21082;-76
2021/05/26 09:02:13;;;;;;;14.90;4.72;;;12.60;99.90;;;;;;1844439;76;21200;-77
2021/05/26 09:04:42;;;;;;;10.28;4.12;;;12.70;99.90;;;;;;1848280;76;21179;-76
2021/05/26 09:07:18;;;;;;;6.50;3.75;;;13.00;99.90;;;;;;1848484;76;21172;-76
2021/05/26 09:09:54;;;;;;;8.58;3.98;;;13.10;99.90;;;;;;1847020;76;21183;-77
2021/05/26 09:12:33;;;;;;;5.92;3.40;;;13.20;99.90;;;;;;1846487;75;21098;-76
2021/05/26 09:15:16;;;;;;;11.80;3.67;;;13.50;99.90;;;;;;1847856;76;21220;-77
2021/05/26 09:17:46;;;;;;;10.35;3.35;;;13.90;99.90;;;;;;1841823;77;21129;-76
2021/05/26 09:20:22;;;;;;;8.60;3.33;;;13.90;99.90;;;;;;1847751;76;21222;-76
2021/05/26 09:23:12;;;;;;;6.67;3.20;;;14.10;99.90;;;;;;1847616;76;21152;-77
2021/05/26 09:25:48;;;;;;;7.35;3.33;;;14.30;99.90;;;;;;1851454;76;21156;-77
2021/05/26 09:28:35;;;;;;;7.85;3.87;;;14.10;99.90;;;;;;1844367;76;21142;-76
2021/05/26 09:31:07;;;;;;;7.15;3.17;;;13.70;99.90;;;;;;1846548;76;21089;-77
2021/05/26 09:33:36;;;;;;;;;;;13.60;99.90;;;;;;1844293;77;21112;-77
2021/05/26 09:36:11;;;;;;;6.42;3.83;;;13.50;99.90;;;;;;1849934;76;20180;-76
2021/05/26 09:38:41;;;;;;;8.65;3.40;;;13.70;99.90;;;;;;1847977;76;21205;-76
2021/05/26 09:41:11;;;;;;;9.03;3.12;;;13.90;99.90;;;;;;1840512;76;21223;-75
2021/05/26 09:43:45;;;;;;;7.53;3.00;;;13.90;99.90;;;;;;1842713;76;21175;-76
2021/05/26 09:46:27;;;;;;;10.08;3.50;;;13.60;99.90;;;;;;1847135;76;21674;-75
2021/05/26 09:49:26;;;;;;;;;;;13.50;99.90;;;;;;1848335;76;21081;-77
2021/05/26 09:51:44;;;;;;;7.97;3.10;;;13.50;99.90;;;;;;1841985;76;20171;-77
2021/05/26 09:54:17;;;;;;;8.03;3.00;;;13.50;99.90;;;;;;1848049;76;21588;-76
2021/05/26 09:56:46;;;;;;;6.95;3.30;;;13.40;99.90;;;;;;1842515;76;21884;-76
2021/05/26 09:59:14;;;;;;;7.70;3.42;;;13.40;99.90;;;;;;1839021;77;21641;-77
2021/05/26 10:01:42;;;;;;;8.85;3.10;;;13.40;99.90;;;;;;1849205;76;21412;-76
2021/05/26 10:04:10;;;;;;;9.55;2.83;;;13.40;99.90;;;;;;1845132;76;21113;-76
2021/05/26 10:06:43;;;;;;;12.58;3.67;;;13.50;99.90;;;;;;1841509;77;21742;-75
2021/05/26 10:09:13;;;;;;;6.10;3.45;;;13.50;99.90;;;;;;1845024;76;21183;-76
2021/05/26 10:11:41;;;;;;;8.03;3.62;;;13.30;99.90;;;;;;1844402;76;21124;-75
2021/05/26 10:14:12;;;;;;;15.80;4.97;;;13.30;99.90;;;;;;1845809;76;21191;-75
2021/05/26 10:16:42;;;;;;;13.22;4.78;;;13.40;99.90;;;;;;1843905;76;21185;-77
2021/05/26 10:19:12;;;;;;;11.43;5.47;;;13.40;99.90;;;;;;1845653;76;21146;-75
2021/05/26 10:21:40;;;;;;;13.20;4.85;;;13.30;99.90;;;;;;1846259;76;21112;-76
2021/05/26 10:24:10;;;;;;;13.22;5.08;;;13.30;99.90;;;;;;1845704;77;21124;-75
2021/05/26 10:26:56;;;;;;;13.43;5.72;;;13.20;99.90;;;;;;1849728;76;21058;-75
2021/05/26 10:29:33;;;;;;;9.53;5.00;;;13.20;99.90;;;;;;1845393;77;21160;-75
2021/05/26 10:32:18;;;;;;;12.07;5.53;;;13.20;99.90;;;;;;1841583;76;21140;-77
2021/05/26 10:34:53;;;;;;;11.63;5.92;;;13.20;99.90;;;;;;1846318;76;21199;-78
2021/05/26 10:37:35;;;;;;;;;;;13.30;99.90;;;;;;1853965;76;21687;-77
2021/05/26 10:40:11;;;;;;;12.88;6.97;;;13.40;99.90;;;;;;1843680;76;20513;-76
2021/05/26 10:42:39;;;;;;;16.62;7.95;;;13.40;99.90;;;;;;1831565;76;21725;-77
2021/05/26 10:45:10;;;;;;;15.88;7.90;;;13.40;99.90;;;;;;1848093;76;21190;-76
2021/05/26 10:47:47;;;;;;;13.62;7.65;;;13.30;99.90;;;;;;1853179;76;21172;-76
2021/05/26 10:50:14;;;;;;;;;;;13.50;99.90;;;;;;1846476;77;21186;-76
2021/05/26 10:53:01;;;;;;;12.10;8.28;;;13.50;99.90;;;;;;1843827;77;20191;-77
2021/05/26 10:55:38;;;;;;;19.02;8.60;;;13.40;99.90;;;;;;1843050;77;21110;-76
2021/05/26 10:58:25;;;;;;;19.00;8.73;;;13.30;99.90;;;;;;1844997;76;21081;-76
2021/05/26 11:01:05;;;;;;;17.02;8.05;;;13.30;99.90;;;;;;1842393;77;21202;-75
2021/05/26 11:03:37;;;;;;;13.60;7.85;;;13.40;99.90;;;;;;1845676;77;21121;-77
2021/05/26 11:06:06;;;;;;;12.95;6.95;;;13.50;99.90;;;;;;1845931;76;21184;-77
2021/05/26 11:08:44;;;;;;;11.97;7.28;;;13.60;99.90;;;;;;1850839;76;21331;-76
2021/05/26 11:11:34;;;;;;;16.80;7.17;;;13.70;99.90;;;;;;1854298;76;21484;-75
2021/05/26 11:14:18;;;;;;;9.55;3.80;;;13.70;99.90;;;;;;1844211;77;21121;-76
2021/05/26 11:16:56;;;;;;;5.30;1.98;;;13.50;99.90;;;;;;1845915;77;21234;-76
2021/05/26 11:19:22;;;;;;;4.00;2.12;;;13.10;99.90;;;;;;1848981;77;21152;-76
2021/05/26 11:22:04;;;;;;;6.72;2.70;;;12.80;99.90;;;;;;1842645;76;21121;-75
2021/05/26 11:24:37;;;;;;;4.47;2.42;;;12.60;99.90;;;;;;1847302;77;21523;-75
2021/05/26 11:27:17;;;;;;;5.08;3.50;;;12.50;99.90;;;;;;1841699;77;21178;-76
2021/05/26 11:29:46;;;;;;;8.63;4.15;;;12.30;99.90;;;;;;1846539;76;22030;-76
2021/05/26 11:32:20;;;;;;;8.73;3.83;;;12.30;99.90;;;;;;1846013;76;21575;-75
2021/05/26 11:34:49;;;;;;;6.37;4.10;;;12.30;99.90;;;;;;1842409;77;22314;-76
2021/05/26 11:37:31;;;;;;;8.50;4.85;;;12.20;99.90;;;;;;1841151;76;21089;-74
2021/05/26 11:39:59;;;;;;;12.53;5.60;;;12.40;99.90;;;;;;1846133;76;21062;-75
2021/05/26 11:42:29;;;;;;;12.07;5.90;;;12.60;99.90;;;;;;1845348;76;21112;-75
2021/05/26 11:45:02;;;;;;;15.50;5.80;;;12.90;99.90;;;;;;1850121;76;21156;-77
2021/05/26 11:47:31;;;;;;;8.60;6.00;;;13.10;99.90;;;;;;1845881;76;21133;-77
2021/05/26 11:49:59;;;;;;;18.35;6.90;;;13.10;99.90;;;;;;1851029;76;21235;-76
2021/05/26 11:52:27;;;;;;;18.25;6.47;;;13.10;99.90;;;;;;1850299;76;21638;-77
2021/05/26 11:55:01;;;;;;;18.92;6.78;;;13.10;99.90;;;;;;1853591;76;21510;-75
2021/05/26 11:57:40;;;;;;;14.83;7.10;;;13.00;99.90;;;;;;1851372;76;21595;-76
2021/05/26 12:00:31;;;;;;;13.80;6.70;;;13.00;99.90;;;;;;1853268;76;21589;-76
2021/05/26 12:03:01;;;;;;;12.90;6.75;;;12.90;99.90;;;;;;1843854;77;21563;-77
2021/05/26 12:05:36;;;;;;;16.95;6.50;;;12.90;99.90;;;;;;1843775;76;21108;-76
2021/05/26 12:08:06;;;;;;;10.78;6.17;;;12.80;99.90;;;;;;1850744;76;21034;-76
2021/05/26 12:10:33;;;;;;;7.45;5.17;;;12.70;99.90;;;;;;1843799;76;21187;-76
2021/05/26 12:13:02;;;;;;;9.88;4.45;;;12.60;99.90;;;;;;1845849;76;21085;-76
2021/05/26 12:15:30;;;;;;;11.08;3.67;;;12.50;99.90;;;;;;1848222;77;21085;-76
2021/05/26 12:17:58;;;;;;;5.65;3.30;;;12.50;99.90;;;;;;1848392;76;21096;-76
2021/05/26 12:20:26;;;;;;;4.20;2.50;;;12.30;99.90;;;;;;1848555;76;21492;-76
2021/05/26 12:22:57;;;;;;;4.70;2.77;;;12.10;99.90;;;;;;1846092;76;21101;-76
2021/05/26 12:25:24;;;;;;;3.77;2.40;;;12.10;99.90;;;;;;1847013;76;21195;-75
2021/05/26 12:27:52;;;;;;;5.08;1.90;;;12.30;99.90;;;;;;1849632;76;21574;-76
2021/05/26 12:30:28;;;;;;;3.85;2.17;;;12.50;99.90;;;;;;1842158;76;21159;-77
2021/05/26 12:33:01;;;;;;;5.62;2.30;;;12.60;99.90;;;;;;1847345;76;21101;-77
2021/05/26 12:35:28;;;;;;;4.47;2.35;;;12.60;99.90;;;;;;1843580;76;21086;-76
2021/05/26 12:37:56;;;;;;;5.28;2.42;;;12.90;99.90;;;;;;1842591;76;21104;-74
2021/05/26 12:40:36;;;;;;;4.40;2.20;;;13.30;99.90;;;;;;1850732;75;21121;-76
2021/05/26 12:43:01;;;;;;;7.85;2.47;;;13.60;99.90;;;;;;1846287;76;21236;-76
2021/05/26 12:45:30;;;;;;;7.42;2.30;;;13.70;99.90;;;;;;1844104;76;21574;-77
2021/05/26 12:48:01;;;;;;;4.67;2.22;;;13.60;99.90;;;;;;1852311;76;21567;-77
2021/05/26 12:50:29;;;;;;;11.25;2.27;;;13.90;99.90;;;;;;1850026;76;21100;-77